< Typhoon 199323 1993 Season Typhoon 199325 >
Typhoon 199324 (JEANA)
General InformationTrack Information on Google MapsDetailed Wind InformationList of All Images || Disaster Info.ResourceGoogle EarthGE AnimationAtom FeedGeoJSON
Detalied Best Track (Time Zone = UTC)
Year Month Day Hour Lat. Long. Pressure (hPa) Wind (kt) Class Image Chart
1993 11 5 00 10.6 154.3 1004 0 2 Image Chart
1993 11 5 06 11.0 153.5 1004 0 2 Image Chart
1993 11 5 12 11.3 152.7 1004 0 2 Image Chart
1993 11 5 18 11.5 152.0 1004 0 2 Image Chart
1993 11 6 00 11.9 151.0 1004 0 2 Image Chart
1993 11 6 06 12.1 150.0 1004 0 2 Image Chart
1993 11 6 12 12.2 149.1 1004 0 2 Image Chart
1993 11 6 18 12.5 148.0 1004 0 2 Image Chart
1993 11 7 00 13.0 146.4 1006 0 2 Image Chart
1993 11 7 06 13.5 144.9 1006 0 2 Image Chart
1993 11 7 12 13.6 144.0 1006 0 2 Image Chart
1993 11 7 18 13.8 143.0 1004 0 2 Image Chart
1993 11 8 00 14.2 142.0 1004 0 2 Image Chart
1993 11 8 06 14.7 140.9 1004 0 2 Image Chart
1993 11 8 12 15.3 139.7 1002 0 2 Image Chart
1993 11 8 18 16.3 138.5 1002 0 2 Image Chart
1993 11 9 00 17.6 136.9 998 35 3 Image Chart
1993 11 9 06 18.0 136.5 996 40 3 Image Chart
1993 11 9 12 18.5 136.1 996 40 3 Image Chart
1993 11 9 18 19.0 135.9 996 40 3 Image Chart
1993 11 10 00 19.5 135.8 996 40 3 Image Chart
1993 11 10 06 20.1 135.8 992 45 3 Image Chart
1993 11 10 12 20.6 135.9 992 45 3 Image Chart
1993 11 10 18 21.1 136.2 992 45 3 Image Chart
1993 11 11 00 21.6 136.7 992 45 3 Image Chart
1993 11 11 06 21.8 137.2 992 45 3 Image Chart
1993 11 11 12 21.9 137.8 996 40 3 Image Chart
1993 11 11 18 22.0 138.4 996 40 3 Image Chart
1993 11 12 00 22.1 139.1 998 35 3 Image Chart
1993 11 12 03 22.3 139.6 1000 0 2 Image Chart
1993 11 12 06 22.5 139.9 1002 0 2 Image Chart
1993 11 12 12 23.1 140.0 1004 0 2 Image Chart
1993 11 12 18 23.7 140.0 1006 0 2 Image Chart
1993 11 13 00 24.4 139.8 1008 0 2 Image Chart
1993 11 13 06 25.4 139.7 1008 0 2 Image Chart
1993 11 13 12 27.3 139.8 1008 0 2 Image Chart
1993 11 13 18 29.0 140.5 1008 0 2 Image Chart
Japan Meteorological Agency Best Track Data | Correction Date : 1994-01-10
< Typhoon 199323 1993 Season Typhoon 199325 >

Help